createdAt,value
2018-04-02T00:00:01.025Z,57.90
2018-04-02T00:02:29.485Z,58.77
2018-04-02T00:04:57.896Z,59.15
2018-04-02T00:07:26.351Z,59.38
2018-04-02T00:09:54.779Z,58.37
2018-04-02T00:12:23.168Z,58.08
2018-04-02T00:14:51.654Z,58.07
2018-04-02T00:17:20.068Z,57.94
2018-04-02T00:19:48.440Z,58.10
2018-04-02T00:22:16.888Z,59.34
2018-04-02T00:24:45.293Z,58.39
2018-04-02T00:27:13.749Z,59.07
2018-04-02T00:29:42.157Z,57.04
2018-04-02T00:32:10.612Z,57.47
2018-04-02T00:34:38.999Z,56.64
2018-04-02T00:37:07.401Z,57.48
2018-04-02T00:39:35.862Z,58.26
2018-04-02T00:42:04.381Z,58.13
2018-04-02T00:44:32.787Z,58.67
2018-04-02T00:47:01.261Z,57.64
2018-04-02T00:49:29.705Z,57.68
2018-04-02T00:51:58.151Z,56.91
2018-04-02T00:54:26.580Z,57.97
2018-04-02T00:56:54.982Z,56.80
2018-04-02T00:59:23.441Z,56.93
2018-04-02T01:01:51.823Z,57.32
2018-04-02T01:04:20.261Z,57.91
2018-04-02T01:06:48.641Z,58.56
2018-04-02T01:09:17.087Z,56.93
2018-04-02T01:11:45.523Z,57.12
2018-04-02T01:14:13.932Z,57.24
2018-04-02T01:16:42.406Z,57.21
2018-04-02T01:19:10.801Z,58.24
2018-04-02T01:21:39.209Z,57.29
2018-04-02T01:24:07.642Z,57.52
2018-04-02T01:26:36.056Z,56.45
2018-04-02T01:29:04.490Z,55.67
2018-04-02T01:31:32.882Z,56.08
2018-04-02T01:34:01.320Z,57.01
2018-04-02T01:36:29.737Z,54.46
2018-04-02T01:38:58.234Z,54.87
2018-04-02T01:41:26.925Z,54.06
2018-04-02T01:43:55.341Z,53.60
2018-04-02T01:46:23.781Z,54.40
2018-04-02T01:48:52.202Z,54.72
2018-04-02T01:51:20.691Z,54.94
2018-04-02T01:53:49.095Z,56.02
2018-04-02T01:56:17.535Z,56.72
2018-04-02T01:58:45.972Z,57.88
2018-04-02T02:01:14.389Z,57.88
2018-04-02T02:03:42.779Z,57.65
2018-04-02T02:06:11.236Z,57.15
2018-04-02T02:08:39.699Z,57.54
2018-04-02T02:11:08.132Z,56.85
2018-04-02T02:13:36.564Z,56.94
2018-04-02T02:16:05.001Z,55.79
2018-04-02T02:18:33.519Z,55.52
2018-04-02T02:21:02.106Z,56.11
2018-04-02T02:23:30.551Z,55.60
2018-04-02T02:25:58.939Z,55.71
2018-04-02T02:28:27.357Z,56.04
2018-04-02T02:30:55.736Z,57.19
2018-04-02T02:33:24.490Z,56.91
2018-04-02T02:35:52.953Z,57.70
2018-04-02T02:38:21.347Z,57.66
2018-04-02T02:40:49.778Z,56.89
2018-04-02T02:43:18.182Z,57.60
2018-04-02T02:45:46.617Z,57.96
2018-04-02T02:48:15.022Z,57.68
2018-04-02T02:50:43.537Z,57.06
2018-04-02T02:53:11.920Z,56.69
2018-04-02T02:55:40.359Z,56.64
2018-04-02T02:58:08.734Z,55.94
2018-04-02T03:00:37.159Z,56.37
2018-04-02T03:03:05.586Z,55.59
2018-04-02T03:05:34.005Z,56.23
2018-04-02T03:08:02.476Z,54.79
2018-04-02T03:10:30.868Z,54.68
2018-04-02T03:12:59.340Z,54.26
2018-04-02T03:15:27.757Z,54.20
2018-04-02T03:17:56.209Z,54.16
2018-04-02T03:20:24.614Z,54.54
2018-04-02T03:22:53.218Z,53.58
2018-04-02T03:25:21.586Z,53.87
2018-04-02T03:27:50.008Z,53.24
2018-04-02T03:30:18.417Z,54.85
2018-04-02T03:32:46.804Z,54.36
2018-04-02T03:35:15.269Z,56.41
2018-04-02T03:37:43.697Z,53.60
2018-04-02T03:40:12.129Z,53.23
2018-04-02T03:42:40.596Z,52.69
2018-04-02T03:45:09.029Z,53.30
2018-04-02T03:47:37.474Z,52.83
2018-04-02T03:50:05.907Z,53.27
2018-04-02T03:52:34.348Z,54.62
2018-04-02T03:55:02.760Z,53.97
2018-04-02T03:57:31.201Z,53.35
2018-04-02T03:59:59.734Z,54.61
2018-04-02T04:02:28.150Z,54.90
2018-04-02T04:04:56.617Z,56.04
2018-04-02T04:07:25.015Z,55.95
2018-04-02T04:09:53.418Z,55.99
2018-04-02T04:12:21.908Z,56.96
2018-04-02T04:14:50.315Z,56.46
2018-04-02T04:17:18.750Z,56.81
2018-04-02T04:19:47.233Z,57.68
2018-04-02T04:22:15.687Z,57.72
2018-04-02T04:24:44.528Z,57.69
2018-04-02T04:27:13.110Z,56.50
2018-04-02T04:29:41.547Z,56.53
2018-04-02T04:32:09.989Z,56.33
2018-04-02T04:34:38.454Z,56.56
2018-04-02T04:37:06.862Z,56.93
2018-04-02T04:39:35.290Z,56.65
2018-04-02T04:42:03.720Z,56.72
2018-04-02T04:44:32.101Z,56.47
2018-04-02T04:47:00.501Z,56.71
2018-04-02T04:49:28.920Z,57.09
2018-04-02T04:51:57.333Z,56.74
2018-04-02T04:54:25.716Z,57.38
2018-04-02T04:56:54.164Z,57.86
2018-04-02T04:59:22.669Z,58.73
2018-04-02T05:01:51.021Z,59.25
2018-04-02T05:04:19.461Z,60.06
2018-04-02T05:06:47.850Z,61.43
2018-04-02T05:09:16.248Z,62.09
2018-04-02T05:11:44.689Z,62.15
2018-04-02T05:14:13.080Z,62.24
2018-04-02T05:16:41.548Z,61.03
2018-04-02T05:19:10.134Z,60.73
2018-04-02T05:21:38.545Z,60.01
2018-04-02T05:24:06.961Z,60.22
2018-04-02T05:26:35.387Z,60.68
2018-04-02T05:29:03.823Z,60.94
2018-04-02T05:31:32.232Z,63.49
2018-04-02T05:34:00.680Z,64.29
2018-04-02T05:36:29.101Z,64.73
2018-04-02T05:38:57.700Z,65.59
2018-04-02T05:41:26.140Z,64.96
2018-04-02T05:43:54.509Z,65.76
2018-04-02T05:46:22.951Z,65.77
2018-04-02T05:48:51.406Z,66.66
2018-04-02T05:51:19.841Z,67.11
2018-04-02T05:53:48.227Z,67.58
2018-04-02T05:56:16.709Z,68.29
2018-04-02T05:58:45.135Z,68.15
2018-04-02T06:01:13.552Z,68.65
2018-04-02T06:03:42.162Z,68.85
2018-04-02T06:06:10.546Z,68.23
2018-04-02T06:08:38.993Z,67.89
2018-04-02T06:11:07.401Z,67.92
2018-04-02T06:13:35.830Z,67.39
2018-04-02T06:16:04.470Z,66.91
2018-04-02T06:18:32.874Z,65.64
2018-04-02T06:21:01.342Z,65.02
2018-04-02T06:23:29.757Z,64.16
2018-04-02T06:25:58.177Z,63.52
2018-04-02T06:28:26.596Z,62.36
2018-04-02T06:30:55.087Z,63.46
2018-04-02T06:33:23.552Z,62.79
2018-04-02T06:35:51.973Z,61.57
2018-04-02T06:38:20.421Z,61.44
2018-04-02T06:40:48.879Z,64.33
2018-04-02T06:43:17.265Z,69.00
2018-04-02T06:45:45.751Z,72.95
2018-04-02T06:48:14.160Z,73.02
2018-04-02T06:50:42.556Z,75.49
2018-04-02T06:53:11.002Z,76.62
2018-04-02T06:55:39.404Z,77.32
2018-04-02T06:58:07.851Z,77.42
2018-04-02T07:00:36.265Z,76.17
2018-04-02T07:03:04.699Z,76.16
2018-04-02T07:05:33.125Z,76.83
2018-04-02T07:08:01.635Z,72.03
2018-04-02T07:10:30.212Z,73.12
2018-04-02T07:12:58.868Z,72.80
2018-04-02T07:15:27.295Z,74.47
2018-04-02T07:17:55.684Z,72.19
2018-04-02T07:20:24.097Z,72.97
2018-04-02T07:22:52.530Z,70.65
2018-04-02T07:25:20.981Z,69.61
2018-04-02T07:27:49.410Z,70.97
2018-04-02T07:30:17.849Z,71.59
2018-04-02T07:32:46.266Z,68.27
2018-04-02T07:35:14.671Z,66.04
2018-04-02T07:37:43.070Z,67.34
2018-04-02T07:40:11.523Z,67.72
2018-04-02T07:42:40.132Z,66.66
2018-04-02T07:45:08.575Z,66.12
2018-04-02T07:47:36.958Z,65.34
2018-04-02T07:50:05.356Z,63.36
2018-04-02T07:52:33.733Z,62.67
2018-04-02T07:55:02.121Z,60.90
2018-04-02T07:57:30.536Z,62.10
2018-04-02T07:59:58.933Z,60.14
2018-04-02T08:02:27.417Z,58.34
2018-04-02T08:04:55.827Z,55.30
2018-04-02T08:07:24.265Z,57.24
2018-04-02T08:09:52.698Z,54.25
2018-04-02T08:12:21.132Z,56.93
2018-04-02T08:14:49.509Z,53.58
2018-04-02T08:17:17.876Z,54.59
2018-04-02T08:19:46.355Z,53.76
2018-04-02T08:22:14.740Z,53.58
2018-04-02T08:24:43.153Z,52.10
2018-04-02T08:27:11.588Z,53.61
2018-04-02T08:29:40.023Z,52.34
2018-04-02T08:32:08.471Z,52.19
2018-04-02T08:34:36.918Z,51.72
2018-04-02T08:37:05.332Z,49.33
2018-04-02T08:39:33.712Z,51.31
2018-04-02T08:42:02.214Z,50.73
2018-04-02T08:44:30.723Z,52.36
2018-04-02T08:46:59.145Z,52.23
2018-04-02T08:49:27.528Z,51.03
2018-04-02T08:51:55.921Z,51.87
2018-04-02T08:54:24.441Z,51.12
2018-04-02T08:56:52.879Z,50.88
2018-04-02T08:59:21.487Z,51.64
2018-04-02T09:01:49.856Z,50.11
2018-04-02T09:04:18.254Z,50.10
2018-04-02T09:06:46.622Z,49.30
2018-04-02T09:09:15.040Z,49.77
2018-04-02T09:11:43.433Z,48.95
2018-04-02T09:14:11.846Z,49.08
2018-04-02T09:16:40.322Z,49.53
2018-04-02T09:19:08.740Z,49.63
2018-04-02T09:21:37.170Z,50.21
2018-04-02T09:24:05.583Z,50.20
2018-04-02T09:26:34.133Z,51.76
2018-04-02T09:29:02.553Z,54.11
2018-04-02T09:31:30.984Z,55.97
2018-04-02T09:33:59.405Z,56.77
2018-04-02T09:36:27.818Z,56.53
2018-04-02T09:38:56.224Z,56.37
2018-04-02T09:41:24.637Z,54.39
2018-04-02T09:43:53.054Z,52.45
2018-04-02T09:46:21.445Z,52.89
2018-04-02T09:48:49.938Z,51.50
2018-04-02T09:51:18.369Z,50.79
2018-04-02T09:53:46.754Z,50.73
2018-04-02T09:56:15.198Z,50.33
2018-04-02T09:58:43.549Z,50.97
2018-04-02T10:01:11.977Z,51.70
2018-04-02T10:03:40.364Z,53.37
2018-04-02T10:06:09.156Z,56.19
2018-04-02T10:08:37.544Z,57.44
2018-04-02T10:11:05.952Z,57.09
2018-04-02T10:13:34.558Z,57.56
2018-04-02T10:16:02.993Z,60.11
2018-04-02T10:18:31.505Z,58.35
2018-04-02T10:21:05.805Z,59.24
2018-04-02T10:23:34.172Z,59.19
2018-04-02T10:26:02.588Z,62.75
2018-04-02T10:28:31.055Z,61.49
2018-04-02T10:30:59.457Z,62.40
2018-04-02T10:33:27.864Z,58.96
2018-04-02T10:35:56.311Z,58.53
2018-04-02T10:38:24.720Z,58.63
2018-04-02T10:40:53.074Z,57.37
2018-04-02T10:43:21.673Z,51.93
2018-04-02T10:45:50.051Z,52.82
2018-04-02T10:48:18.441Z,53.23
2018-04-02T10:50:46.989Z,55.39
2018-04-02T10:53:15.371Z,54.41
2018-04-02T10:55:43.777Z,52.28
2018-04-02T10:58:12.545Z,51.29
2018-04-02T11:00:40.968Z,43.49
2018-04-02T11:03:09.350Z,43.32
2018-04-02T11:05:37.817Z,44.63
2018-04-02T11:08:06.252Z,44.42
2018-04-02T11:10:34.643Z,45.87
2018-04-02T11:13:03.046Z,46.15
2018-04-02T11:15:31.460Z,48.84
2018-04-02T11:17:59.881Z,49.81
2018-04-02T11:20:28.682Z,49.62
2018-04-02T11:22:57.076Z,49.07
2018-04-02T11:25:25.475Z,47.89
2018-04-02T11:27:53.915Z,47.13
2018-04-02T11:30:22.309Z,46.88
2018-04-02T11:32:50.786Z,46.03
2018-04-02T11:35:19.742Z,42.77
2018-04-02T11:37:48.129Z,41.36
2018-04-02T11:40:16.542Z,40.37
2018-04-02T11:42:45.341Z,41.03
2018-04-02T11:45:13.741Z,41.73
2018-04-02T11:47:42.142Z,39.94
2018-04-02T11:50:10.984Z,39.57
2018-04-02T11:52:39.389Z,41.24
2018-04-02T11:55:07.777Z,38.27
2018-04-02T11:57:36.223Z,31.78
2018-04-02T12:00:04.664Z,32.89
2018-04-02T12:02:33.070Z,31.03
2018-04-02T12:05:01.524Z,28.37
2018-04-02T12:07:29.920Z,31.42
2018-04-02T12:09:58.306Z,31.21
2018-04-02T12:12:26.794Z,31.03
2018-04-02T12:14:55.197Z,31.91
2018-04-02T12:17:23.577Z,32.57
2018-04-02T12:19:52.344Z,31.49
2018-04-02T12:22:20.729Z,31.67
2018-04-02T12:24:49.113Z,31.63
2018-04-02T12:27:18.036Z,31.50
2018-04-02T12:29:46.418Z,31.40
2018-04-02T12:32:14.821Z,33.27
2018-04-02T12:34:43.285Z,33.14
2018-04-02T12:37:11.665Z,33.43
2018-04-02T12:39:40.086Z,33.59
2018-04-02T12:42:08.585Z,32.90
2018-04-02T12:44:36.984Z,33.07
2018-04-02T12:47:05.401Z,33.93
2018-04-02T12:49:34.276Z,35.39
2018-04-02T12:52:02.661Z,34.75
2018-04-02T12:54:31.035Z,35.66
2018-04-02T12:57:00.099Z,35.69
2018-04-02T12:59:28.500Z,32.29
2018-04-02T13:01:56.923Z,31.85
2018-04-02T13:04:25.365Z,29.71
2018-04-02T13:06:53.752Z,27.14
2018-04-02T13:09:22.130Z,27.08
2018-04-02T13:11:50.545Z,29.64
2018-04-02T13:14:18.952Z,27.31
2018-04-02T13:16:47.852Z,33.84
2018-04-02T13:19:16.262Z,33.36
2018-04-02T13:21:44.673Z,31.83
2018-04-02T13:24:13.443Z,32.19
2018-04-02T13:26:41.853Z,33.54
2018-04-02T13:29:10.254Z,32.25
2018-04-02T13:31:39.093Z,28.73
2018-04-02T13:34:07.499Z,26.63
2018-04-02T13:36:35.889Z,27.11
2018-04-02T13:39:04.690Z,22.97
2018-04-02T13:41:33.353Z,22.22
2018-04-02T13:44:01.752Z,22.51
2018-04-02T13:46:30.169Z,21.14
2018-04-02T13:48:58.557Z,20.40
2018-04-02T13:51:26.998Z,20.86
2018-04-02T13:53:55.395Z,19.01
2018-04-02T13:56:23.783Z,22.75
2018-04-02T13:58:52.429Z,22.20
2018-04-02T14:01:20.921Z,23.43
2018-04-02T14:03:49.477Z,26.78
2018-04-02T14:06:17.869Z,28.59
2018-04-02T14:08:46.288Z,24.40
2018-04-02T14:11:14.688Z,23.65
2018-04-02T14:13:43.093Z,24.89
2018-04-02T14:16:11.538Z,25.92
2018-04-02T14:18:39.961Z,24.56
2018-04-02T14:21:08.357Z,23.13
2018-04-02T14:23:38.233Z,23.75
2018-04-02T14:26:06.662Z,25.04
2018-04-02T14:28:35.116Z,26.93
2018-04-02T14:31:03.549Z,28.20
2018-04-02T14:33:32.937Z,28.79
2018-04-02T14:36:01.408Z,27.73
2018-04-02T14:38:29.878Z,24.83
2018-04-02T14:40:58.458Z,24.79
2018-04-02T14:43:26.836Z,29.50
2018-04-02T14:45:55.904Z,29.76
2018-04-02T14:48:25.676Z,30.24
2018-04-02T14:50:54.097Z,30.46
2018-04-02T14:53:22.524Z,31.08
2018-04-02T14:55:51.458Z,28.27
2018-04-02T14:58:19.921Z,28.93
2018-04-02T15:00:48.364Z,27.52
2018-04-02T15:03:17.125Z,23.93
2018-04-02T15:05:45.544Z,22.95
2018-04-02T15:08:14.056Z,20.91
2018-04-02T15:10:42.556Z,19.86
2018-04-02T15:13:11.095Z,23.58
2018-04-02T15:15:39.578Z,23.80
2018-04-02T15:18:08.926Z,24.37
2018-04-02T15:20:37.353Z,21.85
2018-04-02T15:23:05.762Z,20.18
2018-04-02T15:25:34.231Z,17.72
2018-04-02T15:28:02.661Z,17.70
2018-04-02T15:30:31.206Z,20.07
2018-04-02T15:32:59.641Z,20.56
2018-04-02T15:35:28.063Z,24.50
2018-04-02T15:37:56.509Z,26.48
2018-04-02T15:40:24.924Z,27.84
2018-04-02T15:42:53.486Z,25.42
2018-04-02T15:45:22.066Z,25.81
2018-04-02T15:47:50.475Z,25.40
2018-04-02T15:50:18.960Z,26.04
2018-04-02T15:52:47.373Z,22.38
2018-04-02T15:55:15.869Z,24.07
2018-04-02T15:57:44.271Z,22.56
2018-04-02T16:00:12.744Z,20.81
2018-04-02T16:02:41.141Z,20.19
2018-04-02T16:05:09.625Z,21.52
2018-04-02T16:07:38.054Z,22.78
2018-04-02T16:10:06.475Z,24.04
2018-04-02T16:12:34.909Z,25.03
2018-04-02T16:15:03.349Z,25.53
2018-04-02T16:17:31.752Z,25.82
2018-04-02T16:20:00.282Z,26.57
2018-04-02T16:22:28.701Z,26.01
2018-04-02T16:24:57.081Z,26.67
2018-04-02T16:27:25.658Z,26.38
2018-04-02T16:29:54.058Z,27.11
2018-04-02T16:32:22.440Z,28.22
2018-04-02T16:34:50.921Z,29.30
2018-04-02T16:37:19.317Z,31.80
2018-04-02T16:39:47.775Z,34.45
2018-04-02T16:42:16.257Z,36.22
2018-04-02T16:44:44.649Z,36.79
2018-04-02T16:47:13.276Z,36.96
2018-04-02T16:49:41.697Z,36.78
2018-04-02T16:52:10.077Z,36.20
2018-04-02T16:54:38.485Z,36.56
2018-04-02T16:57:06.953Z,37.12
2018-04-02T16:59:35.400Z,37.21
2018-04-02T17:02:03.902Z,37.17
2018-04-02T17:04:32.397Z,37.01
2018-04-02T17:07:00.898Z,37.32
2018-04-02T17:09:29.356Z,37.03
2018-04-02T17:11:57.841Z,37.07
2018-04-02T17:14:26.241Z,37.56
2018-04-02T17:16:54.660Z,37.47
2018-04-02T17:19:23.194Z,38.23
2018-04-02T17:21:51.667Z,37.32
2018-04-02T17:24:20.132Z,37.97
2018-04-02T17:26:48.676Z,38.87
2018-04-02T17:29:17.107Z,38.40
2018-04-02T17:31:45.906Z,37.95
2018-04-02T17:34:14.352Z,38.93
2018-04-02T17:36:42.928Z,37.85
2018-04-02T17:39:11.372Z,38.37
2018-04-02T17:41:39.810Z,38.16
2018-04-02T17:44:08.228Z,38.57
2018-04-02T17:46:36.632Z,39.33
2018-04-02T17:49:05.117Z,40.78
2018-04-02T17:51:33.564Z,41.03
2018-04-02T17:54:02.036Z,42.75
2018-04-02T17:56:30.468Z,43.48
2018-04-02T17:58:58.943Z,44.10
2018-04-02T18:01:27.372Z,44.87
2018-04-02T18:03:55.779Z,45.74
2018-04-02T18:06:24.261Z,46.72
2018-04-02T18:08:52.655Z,46.85
2018-04-02T18:11:21.153Z,46.92
2018-04-02T18:13:49.556Z,46.71
2018-04-02T18:16:17.991Z,47.00
2018-04-02T18:18:46.434Z,46.37
2018-04-02T18:21:14.902Z,45.84
2018-04-02T18:23:43.307Z,46.02
2018-04-02T18:26:11.760Z,46.04
2018-04-02T18:28:40.129Z,46.75
2018-04-02T18:31:08.575Z,46.35
2018-04-02T18:33:37.026Z,46.56
2018-04-02T18:36:05.460Z,46.49
2018-04-02T18:38:33.862Z,46.73
2018-04-02T18:41:02.271Z,47.02
2018-04-02T18:43:30.684Z,46.84
2018-04-02T18:45:59.149Z,47.78
2018-04-02T18:48:27.631Z,47.33
2018-04-02T18:50:56.103Z,47.58
2018-04-02T18:53:24.509Z,47.45
2018-04-02T18:55:52.973Z,48.45
2018-04-02T18:58:21.448Z,47.71
2018-04-02T19:00:49.866Z,47.61
2018-04-02T19:03:18.299Z,47.75
2018-04-02T19:05:46.724Z,47.91
2018-04-02T19:08:15.157Z,48.75
2018-04-02T19:10:43.562Z,48.90
2018-04-02T19:13:12.009Z,49.08
2018-04-02T19:15:40.450Z,48.97
2018-04-02T19:18:08.901Z,49.53
2018-04-02T19:20:37.323Z,50.08
2018-04-02T19:23:05.790Z,51.00
2018-04-02T19:25:34.228Z,50.66
2018-04-02T19:28:02.753Z,50.60
2018-04-02T19:30:31.241Z,50.09
2018-04-02T19:32:59.888Z,52.08
2018-04-02T19:35:28.343Z,52.34
2018-04-02T19:37:56.770Z,52.98
2018-04-02T19:40:25.225Z,51.25
2018-04-02T19:42:53.611Z,49.72
2018-04-02T19:45:22.058Z,47.25
2018-04-02T19:47:50.452Z,49.23
2018-04-02T19:50:18.840Z,49.64
2018-04-02T19:52:47.320Z,48.93
2018-04-02T19:55:15.811Z,48.73
2018-04-02T19:57:44.307Z,48.89
2018-04-02T20:00:12.737Z,48.68
2018-04-02T20:02:41.218Z,49.24
2018-04-02T20:05:09.746Z,49.64
2018-04-02T20:07:38.184Z,50.50
2018-04-02T20:10:06.751Z,50.30
2018-04-02T20:12:35.198Z,51.58
2018-04-02T20:15:03.626Z,52.39
2018-04-02T20:17:32.067Z,51.98
2018-04-02T20:20:00.516Z,51.86
2018-04-02T20:22:29.030Z,51.49
2018-04-02T20:24:57.480Z,51.60
2018-04-02T20:27:25.858Z,51.81
2018-04-02T20:29:54.305Z,51.40
2018-04-02T20:32:22.751Z,51.45
2018-04-02T20:34:51.286Z,51.60
2018-04-02T20:37:19.725Z,51.50
2018-04-02T20:39:48.124Z,51.20
2018-04-02T20:42:16.583Z,51.11
2018-04-02T20:44:44.961Z,51.24
2018-04-02T20:47:13.374Z,51.95
2018-04-02T20:49:41.820Z,52.36
2018-04-02T20:52:10.260Z,52.09
2018-04-02T20:54:38.712Z,52.78
2018-04-02T20:57:07.106Z,52.73
2018-04-02T20:59:35.556Z,52.73
2018-04-02T21:02:03.983Z,54.27
2018-04-02T21:04:32.396Z,53.41
2018-04-02T21:07:00.809Z,54.26
2018-04-02T21:09:29.237Z,53.87
2018-04-02T21:12:00.311Z,53.96
2018-04-02T21:14:28.787Z,54.23
2018-04-02T21:16:57.188Z,54.52
2018-04-02T21:19:25.694Z,54.23
2018-04-02T21:21:54.132Z,54.52
2018-04-02T21:24:22.586Z,55.38
2018-04-02T21:26:51.006Z,56.51
2018-04-02T21:29:19.418Z,58.27
2018-04-02T21:31:47.860Z,57.77
2018-04-02T21:34:16.267Z,58.24
2018-04-02T21:36:44.670Z,59.07
2018-04-02T21:39:13.066Z,58.65
2018-04-02T21:41:41.521Z,58.81
2018-04-02T21:44:09.957Z,57.05
2018-04-02T21:46:38.339Z,58.40
2018-04-02T21:49:06.777Z,57.90
2018-04-02T21:51:35.234Z,57.78
2018-04-02T21:54:03.776Z,58.21
2018-04-02T21:56:32.244Z,58.82
2018-04-02T21:59:00.688Z,59.23
2018-04-02T22:01:29.151Z,59.81
2018-04-02T22:03:57.597Z,59.15
2018-04-02T22:06:37.729Z,59.37
2018-04-02T22:09:06.219Z,59.96
2018-04-02T22:11:34.641Z,60.04
2018-04-02T22:14:03.050Z,59.84
2018-04-02T22:16:31.436Z,60.32
2018-04-02T22:18:59.821Z,60.42
2018-04-02T22:21:28.282Z,59.86
2018-04-02T22:23:56.674Z,59.71
2018-04-02T22:26:25.134Z,60.33
2018-04-02T22:28:53.537Z,59.01
2018-04-02T22:31:21.990Z,59.24
2018-04-02T22:33:50.425Z,59.17
2018-04-02T22:36:18.881Z,59.35
2018-04-02T22:38:47.271Z,59.25
2018-04-02T22:41:15.662Z,58.64
2018-04-02T22:43:44.117Z,60.05
2018-04-02T22:46:12.527Z,60.55
2018-04-02T22:48:40.981Z,58.42
2018-04-02T22:51:09.409Z,58.18
2018-04-02T22:53:37.830Z,58.33
2018-04-02T22:56:06.258Z,58.86
2018-04-02T22:58:34.655Z,59.19
2018-04-02T23:01:03.086Z,58.99
2018-04-02T23:03:31.570Z,59.44
2018-04-02T23:05:59.991Z,59.22
2018-04-02T23:08:28.395Z,60.72
2018-04-02T23:10:56.853Z,62.17
2018-04-02T23:13:25.775Z,61.03
2018-04-02T23:15:54.234Z,61.15
2018-04-02T23:18:22.627Z,61.30
2018-04-02T23:20:51.258Z,61.76
2018-04-02T23:23:19.701Z,61.98
2018-04-02T23:25:48.129Z,61.76
2018-04-02T23:28:16.571Z,61.77
2018-04-02T23:30:44.998Z,62.58
2018-04-02T23:33:13.455Z,63.68
2018-04-02T23:35:41.885Z,61.47
2018-04-02T23:38:10.322Z,61.82
2018-04-02T23:40:38.777Z,62.57
2018-04-02T23:43:07.205Z,63.45
2018-04-02T23:45:35.653Z,62.62
2018-04-02T23:48:04.046Z,63.01
2018-04-02T23:50:32.483Z,63.87
2018-04-02T23:53:00.939Z,65.15
2018-04-02T23:55:29.392Z,64.83
2018-04-02T23:57:57.963Z,64.23
